KNFW

Fort Worth NAS JRB (Carswell Field) Airport

Fort Worth, Texas, USA
METAR KNFW 242052Z 18003KT 10SM FEW028 OVC060 27/19 A2988 RMK AO2 SLP102 T02670194 56018 $
Observed Flight Rules
Sep-24 @ 20:52 UTC (32 minutes ago) Visual Flight Rules
Wind Visibility Clouds
180° at 3 knots 10 miles
  • Few at 2,800' AGL
  • Overcast at 6,000' AGL
Temperatures Readings
Current 27°C / 81°F
Dewpoint 19°C / 66°F
Humidity 62%
Altimeter 29.88" Hg
Pressure 1010.2 hPa
Elevation 198
METAR KNFW 242052Z 18003KT 10SM FEW028 OVC060 27/19 A2988 RMK AO2 SLP102 T02670194 56018 $
Observed Flight Rules
Sep-24 @ 20:52 UTC
(32 minutes ago)
VFR
Wind Visibility
180° at 3 knots 10 miles
Clouds
  • Few at 2,800' AGL
  • Overcast at 6,000' AGL
Temperature Dewpoint
27°C / 81°F 19°C / 66°F
Humidity Altimeter Pressure
62% 29.88" Hg 1010.2 hPa